Time;durP1;ratioP1;P1;durP2;ratioP2;P2;SDS_P1;SDS_P2;PMS_P1;PMS_P2;Temp;Humidity;BMP_temperature;BMP_pressure;BME280_temperature;BME280_humidity;BME280_pressure;Samples;Min_cycle;Max_cycle;Signal;HPM_P1;HPM_P2
2021/11/17 13:31:37;;;;;;;1.27;1.07;;;;;;;5.58;93.47;99534.31;5085776;28;20604;-82
2021/11/17 13:34:08;;;;;;;2.17;1.00;;;;;;;6.11;93.37;99524.72;5069507;28;38859;-81
2021/11/17 13:36:43;;;;;;;0.80;0.80;;;;;;;6.73;90.02;99521.66;5084607;28;41392;-84
2021/11/17 13:39:11;;;;;;;2.00;1.27;;;;;;;7.22;87.33;99526.81;5067961;28;42245;-83
2021/11/17 13:41:41;;;;;;;1.47;1.20;;;;;;;7.47;85.14;99534.63;5068103;28;41137;-84
2021/11/17 13:44:24;;;;;;;1.37;1.07;;;;;;;7.80;83.20;99536.84;5070355;28;39148;-82
2021/11/17 13:46:56;;;;;;;1.50;1.40;;;;;;;8.35;81.34;99539.88;5100272;28;40907;-81
2021/11/17 13:49:25;;;;;;;1.73;1.40;;;;;;;8.76;80.03;99541.59;5067768;28;41884;-78
2021/11/17 13:51:52;;;;;;;1.90;1.43;;;;;;;8.87;78.72;99520.84;5068114;28;41508;-84
2021/11/17 13:54:21;;;;;;;2.07;1.87;;;;;;;9.21;77.69;99533.38;5084565;28;39933;-82
2021/11/17 13:56:49;;;;;;;0.93;0.93;;;;;;;9.92;75.38;99538.78;5084826;28;42003;-85
2021/11/17 13:59:17;;;;;;;2.00;1.60;;;;;;;9.88;73.43;99542.53;5084971;28;42782;-82
2021/11/17 14:01:45;;;;;;;1.77;1.67;;;;;;;9.93;71.48;99569.63;5061846;28;41317;-85
2021/11/17 14:04:14;;;;;;;1.77;1.67;;;;;;;9.79;71.83;99545.63;5068684;28;39284;-82
2021/11/17 14:06:43;;;;;;;1.63;1.30;;;;;;;9.55;71.96;99535.28;5068386;28;40609;-82
2021/11/17 14:09:11;;;;;;;3.63;1.70;;;;;;;9.43;72.00;99543.78;5062986;28;43187;-82
2021/11/17 14:11:39;;;;;;;1.60;1.50;;;;;;;9.31;72.69;99534.66;5084063;28;43104;-81
2021/11/17 14:14:06;;;;;;;1.87;1.43;;;;;;;9.39;72.54;99551.97;5068146;28;38896;-82
2021/11/17 14:16:34;;;;;;;2.73;2.50;;;;;;;9.43;72.15;99564.94;5067534;28;40615;-82
2021/11/17 14:19:02;;;;;;;2.33;1.40;;;;;;;9.23;71.73;99535.94;5068020;28;42894;-81
2021/11/17 14:21:32;;;;;;;2.10;1.30;;;;;;;9.21;71.57;99543.06;5067306;28;40889;-85
2021/11/17 14:24:00;;;;;;;1.57;1.43;;;;;;;9.28;71.88;99553.28;5068659;28;39982;-83
2021/11/17 14:26:28;;;;;;;1.50;1.40;;;;;;;9.30;71.94;99558.50;5067416;28;42088;-81
2021/11/17 14:29:06;;;;;;;1.90;1.70;;;;;;;9.40;70.91;99575.66;5084785;28;41777;-81
2021/11/17 14:31:37;;;;;;;1.27;1.17;;;;;;;9.37;71.05;99575.81;5058395;28;41326;-82
2021/11/17 14:34:07;;;;;;;2.33;1.67;;;;;;;9.27;70.17;99579.81;5085199;28;39430;-84
2021/11/17 14:36:38;;;;;;;1.83;1.63;;;;;;;9.25;70.51;99581.66;5085850;28;41915;-83
2021/11/17 14:39:08;;;;;;;1.60;1.30;;;;;;;9.12;71.03;99559.34;5135468;27;43541;-80
2021/11/17 14:41:37;;;;;;;1.40;1.30;;;;;;;9.22;70.61;99589.72;5059781;28;43328;-80
2021/11/17 14:44:05;;;;;;;1.77;1.30;;;;;;;9.06;70.43;99560.47;5075242;28;38807;-82
2021/11/17 14:46:34;;;;;;;1.67;1.10;;;;;;;9.07;70.62;99561.34;5065181;28;41239;-81
2021/11/17 14:49:05;;;;;;;2.10;1.70;;;;;;;9.17;70.70;99581.13;5056477;28;42696;-83
2021/11/17 14:51:37;;;;;;;2.17;1.53;;;;;;;8.95;70.40;99568.88;5073049;28;41022;-81
2021/11/17 14:54:05;;;;;;;2.20;1.03;;;;;;;9.08;70.81;99605.34;5055347;28;39038;-81
2021/11/17 14:56:33;;;;;;;2.33;1.20;;;;;;;8.98;70.92;99589.03;5072652;28;42875;-83
2021/11/17 14:59:01;;;;;;;1.30;1.20;;;;;;;8.88;70.73;99600.94;5057095;28;42123;-85
2021/11/17 15:01:31;;;;;;;1.63;1.20;;;;;;;8.81;70.89;99613.53;5053332;28;42523;-85
2021/11/17 15:04:02;;;;;;;1.30;1.20;;;;;;;8.71;71.02;99614.00;5054453;28;39159;-82
2021/11/17 15:06:32;;;;;;;1.03;1.00;;;;;;;8.59;71.10;99604.81;5053864;28;42179;-82
2021/11/17 15:09:04;;;;;;;1.20;1.00;;;;;;;8.23;71.56;99557.91;5054050;28;41561;-79
2021/11/17 15:11:44;;;;;;;1.30;1.20;;;;;;;8.40;71.24;99611.81;5070554;28;40702;-81
2021/11/17 15:14:12;;;;;;;1.50;1.40;;;;;;;8.21;71.59;99596.69;5070396;28;42102;-81
2021/11/17 15:16:40;;;;;;;3.83;1.70;;;;;;;8.33;72.14;99602.41;5054664;28;41126;-83
2021/11/17 15:19:07;;;;;;;1.93;1.50;;;;;;;8.23;71.99;99594.00;5054014;28;42753;-82
2021/11/17 15:21:35;;;;;;;2.13;1.27;;;;;;;8.16;72.19;99588.09;5052718;28;41885;-83
2021/11/17 15:24:06;;;;;;;1.57;1.20;;;;;;;8.20;72.50;99615.22;5071661;28;39528;-83
2021/11/17 15:26:45;;;;;;;1.30;1.10;;;;;;;8.27;72.64;99627.25;5070333;28;42360;-86
2021/11/17 15:29:16;;;;;;;1.77;1.57;;;;;;;8.24;72.76;99611.53;5053172;28;41716;-86
2021/11/17 15:31:44;;;;;;;0.87;0.87;;;;;;;8.22;72.52;99603.69;5085372;28;41043;-84
2021/11/17 15:34:11;;;;;;;1.97;1.53;;;;;;;8.07;72.46;99596.38;5070030;28;39775;-83
2021/11/17 15:36:39;;;;;;;2.53;1.13;;;;;;;8.15;72.59;99611.94;5053188;28;40790;-85
2021/11/17 15:39:09;;;;;;;1.10;1.00;;;;;;;8.21;73.02;99616.94;5053113;28;41673;-80
2021/11/17 15:41:39;;;;;;;1.37;1.10;;;;;;;8.23;73.07;99623.88;5097876;28;42228;-78
2021/11/17 15:44:07;;;;;;;3.90;0.97;;;;;;;8.25;73.06;99629.09;5070192;28;40609;-81
2021/11/17 15:46:37;;;;;;;1.40;1.07;;;;;;;8.21;72.91;99622.22;5078291;28;40938;-83
2021/11/17 15:49:06;;;;;;;2.27;1.30;;;;;;;8.15;73.10;99615.44;5069827;28;42838;-86
2021/11/17 15:51:35;;;;;;;1.30;1.00;;;;;;;8.25;73.32;99631.72;5043407;28;42434;-85
2021/11/17 15:54:04;;;;;;;1.47;0.93;;;;;;;8.14;73.25;99624.25;5052555;28;38993;-82
2021/11/17 15:56:35;;;;;;;2.23;1.67;;;;;;;8.15;72.93;99628.63;5053367;28;42641;-85
2021/11/17 15:59:03;;;;;;;2.03;1.83;;;;;;;8.17;72.75;99625.88;5053357;28;43183;-85
2021/11/17 16:01:31;;;;;;;1.80;1.40;;;;;;;8.15;73.15;99633.91;5103418;28;42336;-84
2021/11/17 16:04:05;;;;;;;2.00;1.37;;;;;;;8.24;73.17;99648.50;5069702;28;40139;-81
2021/11/17 16:06:36;;;;;;;2.80;1.00;;;;;;;8.25;73.30;99651.06;5068580;28;42212;-80
2021/11/17 16:09:06;;;;;;;3.07;2.00;;;;;;;8.24;73.02;99648.50;5068973;28;41928;-80
2021/11/17 16:11:35;;;;;;;3.73;2.17;;;;;;;8.23;73.20;99647.63;5037162;28;41307;-86
